Latest Weather Observations for Horn Island

IDQ60801

Issued at 5:52 am EST Saturday 19 October 2019 (issued every 10 minutes, with the page automatically refreshed every 10 minutes)

About weather observations | Map of weather stations | Latest weather observations for QLD | Other Formats
Station Details ID: 027058 Name: HORN ISLAND Lat: -10.58 Lon: 142.29 Height: 4.0 m
Data from the previous 72 hours. | See also: Recent months at Horn Island
Date/Time
EST
Temp
°C
App
Temp
°C
Dew
Point
°C
Rel
Hum
%
Delta-T
°C
Wind Press
QNH
hPa
Press
MSL
hPa
Rain since
9am
mm
Dir  Spd
km/h
Gust
km/h
Spd
kts
Gust
kts
19/05:30am 24.8 24.8 19.8 74 3.2 ESE 19 24 10 13 1013.3 1013.3 0.0
19/05:00am 24.8 24.6 19.4 72 3.5 SE 19 28 10 15 1012.9 1012.9 0.0
19/04:30am 25.0 24.7 19.6 72 3.5 ESE 20 26 11 14 1012.6 1012.6 0.0
19/04:00am 24.9 25.1 20.2 75 3.1 ESE 19 26 10 14 1012.5 1012.5 0.0
19/03:30am 24.6 25.1 20.1 76 2.9 ESE 17 22 9 12 1012.6 1012.6 0.0
19/03:00am 24.6 24.9 20.5 78 2.7 SE 19 26 10 14 1012.8 1012.8 0.0
19/02:30am 24.7 25.2 20.8 79 2.6 SE 19 26 10 14 1012.9 1012.9 0.0
19/02:00am 24.5 25.0 20.8 80 2.4 ESE 19 26 10 14 1012.8 1012.8 0.0
19/01:30am 24.5 24.7 20.6 79 2.5 ESE 20 26 11 14 1012.9 1012.9 0.0
19/01:00am 24.6 25.0 20.7 79 2.6 ESE 19 28 10 15 1013.2 1013.2 0.0
19/12:30am 24.6 24.8 20.5 78 2.7 ESE 20 26 11 14 1013.3 1013.3 0.0
19/12:00am 24.6 24.9 20.7 79 2.5 ESE 20 28 11 15 1013.6 1013.6 0.0
 
Date/Time
EST
Temp
°C
App
Temp
°C
Dew
Point
°C
Rel
Hum
%
Delta-T
°C
Wind Press
QNH
hPa
Press
MSL
hPa
Rain since
9am
mm
Dir  Spd
km/h
Gust
km/h
Spd
kts
Gust
kts
18/11:30pm 24.8 25.2 20.9 79 2.6 ESE 20 28 11 15 1013.8 1013.8 0.0
18/11:00pm 24.8 25.0 20.5 77 2.8 ESE 20 26 11 14 1014.0 1014.0 0.0
18/10:30pm 25.0 25.3 20.7 77 2.8 ESE 20 28 11 15 1014.1 1014.1 0.0
18/10:00pm 25.2 25.0 20.5 75 3.1 ESE 22 32 12 17 1014.0 1014.0 0.0
18/09:30pm 25.3 25.5 20.5 75 3.1 ESE 20 28 11 15 1013.9 1013.9 0.0
18/09:00pm 25.4 25.2 20.6 75 3.1 ESE 22 30 12 16 1013.8 1013.8 0.0
18/08:30pm 25.4 25.4 20.9 76 3.0 ESE 22 32 12 17 1013.6 1013.6 0.0
18/08:00pm 25.5 25.0 20.7 75 3.1 ESE 24 32 13 17 1013.4 1013.4 0.0
18/07:30pm 25.7 25.2 20.7 74 3.3 ESE 24 33 13 18 1013.2 1013.2 0.0
18/07:00pm 26.0 25.2 20.8 73 3.4 ESE 26 35 14 19 1012.9 1012.9 0.0
18/06:30pm 26.1 25.1 20.4 71 3.7 ESE 26 35 14 19 1012.6 1012.6 0.0
18/06:00pm 26.5 25.0 20.3 68 4.1 ESE 28 39 15 21 1012.4 1012.4 0.0
18/05:30pm 27.1 24.8 20.2 66 4.5 ESE 32 43 17 23 1012.2 1012.2 0.0
18/05:00pm 27.7 27.0 21.0 67 4.4 E 26 35 14 19 1011.9 1011.9 0.0
18/04:30pm 27.8 24.8 19.8 61 5.2 ESE 35 48 19 26 1011.6 1011.6 0.0
18/04:00pm 28.4 25.7 19.6 59 5.7 E 33 44 18 24 1011.6 1011.6 0.0
18/03:30pm 28.8 27.1 21.3 64 5.0 E 32 43 17 23 1011.6 1011.6 0.0
18/03:00pm 28.8 26.0 20.3 60 5.6 ESE 35 48 19 26 1011.7 1011.7 0.0
18/02:30pm 28.9 26.5 20.4 60 5.6 E 33 46 18 25 1012.0 1012.0 0.0
18/02:00pm 29.7 28.0 21.4 61 5.6 E 32 41 17 22 1012.2 1012.2 0.0
18/01:30pm 29.2 26.9 20.6 59 5.7 ESE 33 43 18 23 1012.3 1012.3 0.0
18/01:00pm 28.8 26.1 20.5 61 5.5 ESE 35 44 19 24 1012.6 1012.6 0.0
18/12:30pm 29.3 27.1 20.7 59 5.7 ESE 33 44 18 24 1013.1 1013.1 0.0
18/12:00pm 29.6 27.7 21.0 60 5.7 E 32 39 17 21 1013.4 1013.4 0.0
18/11:30am 29.1 26.4 19.7 57 6.1 ESE 33 46 18 25 1013.6 1013.6 0.0
18/11:00am 28.7 26.2 20.2 60 5.6 E 33 46 18 25 1013.8 1013.8 0.0
18/10:30am 28.5 26.2 20.5 62 5.3 E 33 44 18 24 1014.0 1014.0 0.0
18/10:00am 28.3 26.0 20.1 61 5.4 E 32 44 17 24 1014.3 1014.3 0.0
18/09:30am 28.1 25.7 20.4 63 5.1 E 33 44 18 24 1014.4 1014.4 0.0
18/09:00am 27.6 25.9 19.9 63 5.0 E 28 43 15 23 1014.3 1014.3 0.0
18/08:30am 27.4 25.3 19.7 63 5.0 E 30 43 16 23 1014.3 1014.3 0.0
18/08:00am 27.3 26.1 20.1 64 4.7 E 26 35 14 19 1014.3 1014.3 0.0
18/07:30am 26.3 25.0 19.9 68 4.2 E 26 35 14 19 1013.9 1013.9 0.0
18/07:00am 25.9 25.3 20.5 72 3.5 E 24 33 13 18 1013.4 1013.4 0.0
18/06:30am 25.2 24.5 20.2 74 3.3 E 24 33 13 18 1013.1 1013.1 0.0
18/06:00am 25.1 24.1 20.4 75 3.1 ESE 26 37 14 20 1012.9 1012.9 0.0
18/05:30am 25.0 24.7 20.3 75 3.1 ESE 22 35 12 19 1012.8 1012.8 0.0
18/05:00am 25.1 24.3 20.1 74 3.2 ESE 24 33 13 18 1012.6 1012.6 0.0
18/04:30am 25.1 24.5 20.6 76 2.9 ESE 24 32 13 17 1012.5 1012.5 0.0
18/04:00am 25.1 24.9 20.6 76 2.9 ESE 22 32 12 17 1012.3 1012.3 0.0
18/03:30am 25.1 25.0 20.8 77 2.8 ESE 22 30 12 16 1012.4 1012.4 0.0
18/03:00am 25.2 25.1 20.7 76 2.9 ESE 22 32 12 17 1012.6 1012.6 0.0
18/02:30am 25.2 25.0 20.5 75 3.1 ESE 22 30 12 16 1013.0 1013.0 0.0
18/02:00am 25.3 24.7 20.5 75 3.1 ESE 24 33 13 18 1013.1 1013.1 0.0
18/01:30am 25.2 25.6 20.9 77 2.8 ESE 20 26 11 14 1013.1 1013.1 0.0
18/01:00am 25.4 24.8 20.6 75 3.1 ESE 24 33 13 18 1013.4 1013.4 0.0
18/12:30am 25.4 25.2 20.6 75 3.1 ESE 22 33 12 18 1013.8 1013.8 0.0
18/12:00am 25.5 24.6 20.7 75 3.1 ESE 26 33 14 18 1013.9 1013.9 0.0
 
Date/Time
EST
Temp
°C
App
Temp
°C
Dew
Point
°C
Rel
Hum
%
Delta-T
°C
Wind Press
QNH
hPa
Press
MSL
hPa
Rain since
9am
mm
Dir  Spd
km/h
Gust
km/h
Spd
kts
Gust
kts
17/11:30pm 25.6 24.9 21.1 76 3.0 ESE 26 35 14 19 1014.2 1014.2 0.0
17/11:00pm 25.6 25.1 20.8 75 3.2 ESE 24 33 13 18 1014.4 1014.4 0.0
17/10:30pm 25.6 24.9 21.1 76 3.0 ESE 26 35 14 19 1014.4 1014.4 0.0
17/10:00pm 25.7 24.3 21.1 76 3.0 ESE 30 37 16 20 1014.2 1014.2 0.0
17/09:30pm 25.8 25.8 21.7 78 2.7 ESE 24 32 13 17 1014.0 1014.0 0.0
17/09:00pm 25.7 25.4 21.1 76 3.0 ESE 24 37 13 20 1013.8 1013.8 0.0
17/08:30pm 26.0 26.2 21.4 76 3.1 ESE 22 32 12 17 1013.4 1013.4 0.0
17/08:00pm 26.0 25.9 21.4 76 3.1 ESE 24 35 13 19 1013.0 1013.0 0.0
17/07:30pm 25.9 25.1 20.9 74 3.3 ESE 26 39 14 21 1012.5 1012.5 0.0
17/07:00pm 26.0 25.4 21.2 75 3.2 ESE 26 33 14 18 1012.1 1012.1 0.0
17/06:30pm 26.1 25.0 21.1 74 3.3 ESE 28 37 15 20 1011.8 1011.8 0.0
17/06:00pm 26.4 24.9 20.9 72 3.6 ESE 30 39 16 21 1011.7 1011.7 0.0
17/05:30pm 27.1 26.3 21.6 72 3.7 ESE 28 39 15 21 1011.3 1011.3 0.0
17/05:00pm 27.7 26.4 21.3 68 4.3 ESE 30 39 16 21 1011.2 1011.2 0.0
17/04:30pm 28.0 26.3 21.3 67 4.5 E 32 44 17 24 1011.2 1011.2 0.0
17/04:00pm 28.2 26.2 21.2 65 4.7 E 33 43 18 23 1011.3 1011.3 0.0
17/03:30pm 28.4 26.9 20.9 64 5.0 E 30 43 16 23 1011.5 1011.5 0.0
17/03:00pm 28.3 25.4 20.1 61 5.4 ESE 35 46 19 25 1011.7 1011.7 0.0
17/02:30pm 28.9 26.3 20.6 61 5.5 ESE 35 46 19 25 1011.8 1011.8 0.0
17/02:00pm 28.6 26.2 20.3 60 5.5 ESE 33 44 18 24 1012.3 1012.3 0.0
17/01:30pm 29.0 26.8 20.7 61 5.5 E 33 44 18 24 1012.6 1012.6 0.0
17/01:00pm 29.9 27.5 21.0 59 5.9 ESE 35 46 19 25 1013.1 1013.1 0.0
17/12:30pm 29.2 26.7 20.1 58 6.0 E 33 43 18 23 1013.6 1013.6 0.0
17/12:00pm 29.1 26.2 20.0 58 6.0 ESE 35 46 19 25 1014.0 1014.0 0.0
17/11:30am 29.4 26.9 19.7 56 6.3 ESE 32 44 17 24 1014.3 1014.3 0.0
17/11:00am 29.3 26.9 19.9 57 6.2 E 32 43 17 23 1014.4 1014.4 0.0
17/10:30am 28.8 26.1 19.7 58 5.9 ESE 33 46 18 25 1014.4 1014.4 0.0
17/10:00am 29.1 26.8 19.4 55 6.3 ESE 30 37 16 20 1014.7 1014.7 0.0
17/09:30am 28.5 25.8 19.2 57 6.0 ESE 32 43 17 23 1014.8 1014.8 0.0
17/09:00am 28.6 27.4 20.1 60 5.6 ESE 26 35 14 19 1014.7 1014.7 0.0
17/08:30am 28.2 28.1 20.7 63 5.0 ESE 22 33 12 18 1014.4 1014.4 0.0
17/08:00am 26.3 25.6 20.2 69 4.0 ESE 24 35 13 19 1014.3 1014.3 0.0
17/07:30am 26.2 26.7 20.8 72 3.6 E 19 26 10 14 1013.9 1013.9 0.0
17/07:00am 25.5 25.6 19.9 71 3.6 E 19 26 10 14 1013.5 1013.5 0.0
17/06:30am 25.1 24.7 18.8 68 4.0 E 19 30 10 16 1013.1 1013.1 0.0
17/06:00am 24.8 24.4 19.4 72 3.5 E 20 30 11 16 1012.9 1012.9 0.0
17/05:30am 24.7 24.6 19.5 73 3.3 E 19 24 10 13 1012.3 1012.3 0.0
17/05:00am 24.7 24.4 19.1 71 3.6 E 19 26 10 14 1012.3 1012.3 0.0
17/04:30am 25.2 25.0 19.3 70 3.8 E 19 30 10 16 1012.1 1012.1 0.0
17/04:00am 24.9 24.2 18.6 68 4.0 E 20 32 11 17 1012.0 1012.0 0.0
17/03:30am 24.7 23.9 18.4 68 4.0 E 20 30 11 16 1011.8 1011.8 0.0
17/03:00am 24.8 24.0 18.5 68 4.0 E 20 30 11 16 1011.7 1011.7 0.0
17/02:30am 24.9 23.4 18.6 68 4.0 E 24 32 13 17 1011.9 1011.9 0.0
17/02:00am 24.8 24.2 18.5 68 4.0 E 19 26 10 14 1012.2 1012.2 0.0
17/01:30am 25.2 24.9 19.1 69 3.9 E 19 30 10 16 1012.6 1012.6 0.0
17/01:00am 25.0 24.4 18.9 69 3.9 E 20 28 11 15 1012.9 1012.9 0.0
17/12:30am 25.1 24.5 18.5 67 4.2 ESE 19 28 10 15 1013.0 1013.0 0.0
17/12:00am 25.0 24.2 18.4 66 4.2 E 20 30 11 16 1013.3 1013.3 0.0
 
Date/Time
EST
Temp
°C
App
Temp
°C
Dew
Point
°C
Rel
Hum
%
Delta-T
°C
Wind Press
QNH
hPa
Press
MSL
hPa
Rain since
9am
mm
Dir  Spd
km/h
Gust
km/h
Spd
kts
Gust
kts
16/11:30pm 24.9 24.7 18.6 68 4.0 E 17 24 9 13 1013.6 1013.6 0.0
16/11:00pm 25.0 24.4 18.9 69 3.9 E 20 28 11 15 1013.6 1013.6 0.0
16/10:30pm 25.2 24.2 18.9 68 4.0 E 22 32 12 17 1013.8 1013.8 0.0
16/10:00pm 25.3 24.4 19.0 68 4.0 ESE 22 28 12 15 1013.8 1013.8 0.0
16/09:30pm 25.2 24.3 19.1 69 3.9 ESE 22 32 12 17 1013.3 1013.3 0.0
16/09:00pm 25.2 24.4 19.3 70 3.8 E 22 33 12 18 1013.0 1013.0 0.0
16/08:30pm 25.2 23.8 18.9 68 4.0 ESE 24 30 13 16 1012.6 1012.6 0.0
16/08:00pm 25.3 24.5 19.2 69 3.9 ESE 22 30 12 16 1012.4 1012.4 0.0
16/07:30pm 25.1 23.9 18.5 67 4.2 ESE 22 32 12 17 1012.2 1012.2 0.0
16/07:00pm 25.2 23.7 18.6 67 4.2 ESE 24 32 13 17 1011.8 1011.8 0.0
16/06:30pm 25.6 24.7 19.0 67 4.2 ESE 22 30 12 16 1011.5 1011.5 0.0
16/06:00pm 25.9 24.7 19.3 67 4.2 ESE 24 33 13 18 1011.1 1011.1 0.0
16/05:30pm 26.8 24.5 18.4 60 5.3 ESE 28 37 15 20 1011.0 1011.0 0.0
16/05:00pm 27.3 25.5 19.6 62 5.0 E 28 35 15 19 1010.8 1010.8 0.0
16/04:30pm 27.5 24.4 18.5 58 5.7 E 32 41 17 22 1010.8 1010.8 0.0
16/04:00pm 28.1 25.4 19.3 58 5.7 ESE 32 43 17 23 1010.8 1010.8 0.0
16/03:30pm 27.9 24.8 18.3 56 6.1 E 32 44 17 24 1010.9 1010.9 0.0
16/03:00pm 28.5 25.5 17.7 52 6.8 ESE 30 41 16 22 1010.9 1010.9 0.0
16/02:30pm 28.4 25.6 18.2 54 6.5 E 30 35 16 19 1011.0 1011.0 0.0
16/02:00pm 28.7 26.3 18.2 53 6.7 ESE 28 37 15 20 1011.3 1011.3 0.0
16/01:30pm 28.9 26.2 18.4 53 6.7 ESE 30 37 16 20 1011.7 1011.7 0.0
16/01:00pm 28.2 25.6 19.4 59 5.7 E 32 39 17 21 1011.9 1011.9 0.0
16/12:30pm 27.9 25.8 19.7 61 5.3 E 30 37 16 20 1012.5 1012.5 0.0
16/12:00pm 27.4 25.8 19.2 61 5.3 ESE 26 35 14 19 1013.0 1013.0 0.0
16/11:30am 27.9 26.0 18.6 57 6.0 E 26 37 14 20 1013.2 1013.2 0.0
16/11:00am 28.2 26.2 19.2 58 5.8 ESE 28 37 15 20 1013.4 1013.4 0.0
16/10:30am 27.3 24.3 18.6 59 5.6 ESE 32 39 17 21 1013.6 1013.6 0.0
16/10:00am 27.2 24.7 18.8 60 5.4 ESE 30 35 16 19 1013.7 1013.7 0.0
16/09:30am 27.9 26.4 18.6 57 6.0 ESE 24 35 13 19 1013.9 1013.9 0.0
16/09:00am 27.2 26.4 19.3 62 5.1 E 22 28 12 15 1014.1 1014.1 0.0
16/08:30am 26.1 24.9 19.2 65 4.4 E 24 33 13 18 1013.9 1013.9 0.0
16/08:00am 26.2 24.7 18.6 63 4.8 E 24 30 13 16 1013.6 1013.6 0.0
16/07:30am 25.8 25.3 18.7 65 4.5 E 19 32 10 17 1013.2 1013.2 0.0
16/07:00am 25.2 25.2 18.9 68 4.0 E 17 26 9 14 1012.9 1012.9 0.0
16/06:30am 24.5 24.4 18.7 70 3.7 ESE 17 22 9 12 1012.7 1012.7 0.0
16/06:00am 24.2 24.1 18.8 72 3.4 E 17 24 9 13 1012.2 1012.2 0.0

Other formats

Comma delimited format used in spreadsheet applications
http://www.bom.gov.au/fwo/IDQ60801/IDQ60801.94174.axf

JavaScript Object Notation format (JSON) in row-major order
http://www.bom.gov.au/fwo/IDQ60801/IDQ60801.94174.json

Data quality

Most of these data are generated automatically and are frequently updated. Quality checks on data are not normally performed. It is possible for incorrect values to appear. Refer to information at About Latest Weather Observations and please check the disclaimer before using these data.